createdAt,value
2023-04-24T00:00:49.010Z,1
2023-04-24T00:02:03.172Z,1
2023-04-24T00:03:17.473Z,1
2023-04-24T00:05:45.570Z,1
2023-04-24T00:06:59.721Z,1
2023-04-24T00:08:13.790Z,1
2023-04-24T00:10:42.057Z,1
2023-04-24T00:11:56.218Z,1
2023-04-24T00:13:10.291Z,1
2023-04-24T00:14:24.523Z,1
2023-04-24T00:16:52.854Z,1
2023-04-24T00:18:07.017Z,1
2023-04-24T00:19:20.963Z,1
2023-04-24T00:21:49.253Z,1
2023-04-24T00:23:03.522Z,1
2023-04-24T00:24:17.519Z,1
2023-04-24T00:26:45.937Z,1
2023-04-24T00:27:59.956Z,1
2023-04-24T00:29:14.059Z,1
2023-04-24T00:31:42.377Z,1
2023-04-24T00:32:56.479Z,1
2023-04-24T00:34:10.579Z,1
2023-04-24T00:35:24.788Z,1
2023-04-24T00:37:52.981Z,1
2023-04-24T00:39:07.184Z,1
2023-04-24T00:40:21.233Z,1
2023-04-24T00:42:49.611Z,1
2023-04-24T00:44:03.740Z,1
2023-04-24T00:45:17.880Z,1
2023-04-24T00:47:46.082Z,1
2023-04-24T00:49:00.170Z,1
2023-04-24T00:50:14.340Z,1
2023-04-24T00:52:42.700Z,1
2023-04-24T00:53:56.724Z,1
2023-04-24T00:55:10.860Z,1
2023-04-24T00:56:25.012Z,1
2023-04-24T00:58:53.264Z,1
2023-04-24T01:00:07.441Z,1
2023-04-24T01:01:21.559Z,1
2023-04-24T01:03:49.953Z,1
2023-04-24T01:05:04.009Z,1
2023-04-24T01:06:18.125Z,1
2023-04-24T01:08:46.637Z,1
2023-04-24T01:10:00.537Z,1
2023-04-24T01:11:14.630Z,1
2023-04-24T01:13:42.846Z,1
2023-04-24T01:14:57.004Z,1
2023-04-24T01:16:11.152Z,1
2023-04-24T01:17:25.418Z,1
2023-04-24T01:19:53.520Z,1
2023-04-24T01:21:07.702Z,1
2023-04-24T01:22:21.805Z,1
2023-04-24T01:24:50.083Z,1
2023-04-24T01:26:04.183Z,1
2023-04-24T01:27:18.373Z,1
2023-04-24T01:29:46.627Z,1
2023-04-24T01:31:00.708Z,1
2023-04-24T01:32:14.881Z,1
2023-04-24T01:34:43.129Z,1
2023-04-24T01:35:57.282Z,1
2023-04-24T01:37:11.385Z,1
2023-04-24T01:39:39.764Z,1
2023-04-24T01:40:53.878Z,1
2023-04-24T01:42:07.946Z,1
2023-04-24T01:43:22.062Z,1
2023-04-24T01:45:50.297Z,1
2023-04-24T01:47:04.551Z,1
2023-04-24T01:48:18.597Z,1
2023-04-24T01:50:46.904Z,1
2023-04-24T01:52:00.975Z,2
2023-04-24T01:53:15.124Z,1
2023-04-24T01:55:43.383Z,2
2023-04-24T01:56:57.535Z,1
2023-04-24T01:58:11.644Z,2
2023-04-24T02:00:39.943Z,2
2023-04-24T02:01:54.163Z,2
2023-04-24T02:03:08.326Z,2
2023-04-24T02:04:22.340Z,2
2023-04-24T02:06:50.590Z,2
2023-04-24T02:08:04.809Z,1
2023-04-24T02:09:18.976Z,2
2023-04-24T02:11:47.425Z,2
2023-04-24T02:13:01.231Z,2
2023-04-24T02:14:15.401Z,2
2023-04-24T02:16:43.745Z,2
2023-04-24T02:17:57.820Z,2
2023-04-24T02:19:11.912Z,2
2023-04-24T02:20:26.095Z,2
2023-04-24T02:21:40.190Z,2
2023-04-24T02:22:54.372Z,2
2023-04-24T02:24:08.462Z,2
2023-04-24T02:25:22.606Z,2
2023-04-24T02:27:50.895Z,2
2023-04-24T02:29:05.063Z,2
2023-04-24T02:30:19.355Z,2
2023-04-24T02:32:47.467Z,2
2023-04-24T02:34:01.512Z,2
2023-04-24T02:35:15.766Z,2
2023-04-24T02:37:44.020Z,2
2023-04-24T02:38:58.053Z,2
2023-04-24T02:40:12.178Z,2
2023-04-24T02:42:40.408Z,3
2023-04-24T02:43:54.593Z,3
2023-04-24T02:45:08.755Z,3
2023-04-24T02:46:22.931Z,3
2023-04-24T02:48:51.082Z,3
2023-04-24T02:50:05.320Z,3
2023-04-24T02:51:19.375Z,3
2023-04-24T02:53:47.651Z,3
2023-04-24T02:55:01.768Z,3
2023-04-24T02:56:15.992Z,3
2023-04-24T02:58:44.253Z,4
2023-04-24T02:59:58.401Z,4
2023-04-24T03:01:12.454Z,4
2023-04-24T03:03:40.866Z,4
2023-04-24T03:04:54.857Z,4
2023-04-24T03:06:09.003Z,4
2023-04-24T03:07:23.126Z,4
2023-04-24T03:09:51.346Z,5
2023-04-24T03:11:05.495Z,4
2023-04-24T03:12:19.710Z,4
2023-04-24T03:14:47.954Z,4
2023-04-24T03:16:02.119Z,4
2023-04-24T03:17:16.255Z,4
2023-04-24T03:19:44.800Z,4
2023-04-24T03:20:58.672Z,5
2023-04-24T03:22:12.711Z,4
2023-04-24T03:24:40.938Z,4
2023-04-24T03:25:55.192Z,4
2023-04-24T03:27:09.249Z,4
2023-04-24T03:28:23.503Z,4
2023-04-24T03:30:51.616Z,4
2023-04-24T03:32:05.797Z,5
2023-04-24T03:33:19.887Z,4
2023-04-24T03:35:48.179Z,5
2023-04-24T03:37:02.346Z,5
2023-04-24T03:38:16.473Z,5
2023-04-24T03:40:44.756Z,5
2023-04-24T03:41:58.925Z,5
2023-04-24T03:43:12.965Z,5
2023-04-24T03:44:27.185Z,5
2023-04-24T03:45:41.210Z,5
2023-04-24T03:46:55.456Z,5
2023-04-24T03:48:09.580Z,5
2023-04-24T03:49:23.655Z,5
2023-04-24T03:51:52.109Z,5
2023-04-24T03:53:06.142Z,5
2023-04-24T03:54:20.286Z,5
2023-04-24T03:56:48.459Z,5
2023-04-24T03:58:02.580Z,5
2023-04-24T03:59:16.699Z,5
2023-04-24T04:01:45.044Z,5
2023-04-24T04:02:59.288Z,5
2023-04-24T04:04:13.476Z,5
2023-04-24T04:06:41.468Z,5
2023-04-24T04:07:55.604Z,5
2023-04-24T04:09:09.821Z,5
2023-04-24T04:10:23.952Z,5
2023-04-24T04:12:52.146Z,5
2023-04-24T04:14:06.387Z,5
2023-04-24T04:15:20.432Z,5
2023-04-24T04:17:48.809Z,5
2023-04-24T04:19:02.815Z,4
2023-04-24T04:20:17.079Z,4
2023-04-24T04:22:45.237Z,5
2023-04-24T04:23:59.372Z,5
2023-04-24T04:25:13.491Z,5
2023-04-24T04:27:41.734Z,4
2023-04-24T04:28:55.882Z,4
2023-04-24T04:30:10.059Z,5
2023-04-24T04:31:24.230Z,5
2023-04-24T04:33:52.428Z,5
2023-04-24T04:35:06.676Z,4
2023-04-24T04:36:20.684Z,5
2023-04-24T04:38:49.041Z,5
2023-04-24T04:40:03.166Z,5
2023-04-24T04:41:17.311Z,4
2023-04-24T04:43:45.493Z,5
2023-04-24T04:44:59.629Z,5
2023-04-24T04:46:13.906Z,5
2023-04-24T04:48:42.020Z,5
2023-04-24T04:49:56.176Z,5
2023-04-24T04:51:10.283Z,5
2023-04-24T04:52:24.465Z,5
2023-04-24T04:54:52.678Z,5
2023-04-24T04:56:06.812Z,5
2023-04-24T04:57:20.950Z,5
2023-04-24T04:59:49.232Z,5
2023-04-24T05:01:03.383Z,4
2023-04-24T05:02:17.623Z,4
2023-04-24T05:04:46.365Z,4
2023-04-24T05:05:59.893Z,5
2023-04-24T05:07:14.123Z,5
2023-04-24T05:09:42.555Z,5
2023-04-24T05:10:56.558Z,5
2023-04-24T05:12:10.546Z,5
2023-04-24T05:14:38.932Z,5
2023-04-24T05:15:52.945Z,5
2023-04-24T05:17:07.140Z,5
2023-04-24T05:18:21.240Z,4
2023-04-24T05:20:49.534Z,5
2023-04-24T05:22:03.678Z,4
2023-04-24T05:23:17.797Z,5
2023-04-24T05:25:46.052Z,5
2023-04-24T05:27:00.207Z,4
2023-04-24T05:28:14.340Z,5
2023-04-24T05:30:42.558Z,4
2023-04-24T05:31:56.727Z,5
2023-04-24T05:33:10.874Z,5
2023-04-24T05:34:24.951Z,5
2023-04-24T05:36:53.350Z,5
2023-04-24T05:38:07.346Z,5
2023-04-24T05:39:21.510Z,5
2023-04-24T05:41:49.760Z,4
2023-04-24T05:43:03.892Z,5
2023-04-24T05:44:18.030Z,5
2023-04-24T05:46:46.370Z,5
2023-04-24T05:48:00.420Z,5
2023-04-24T05:49:14.584Z,5
2023-04-24T05:51:42.851Z,5
2023-04-24T05:52:56.935Z,5
2023-04-24T05:54:11.071Z,4
2023-04-24T05:55:25.288Z,5
2023-04-24T05:57:53.584Z,4
2023-04-24T05:59:07.735Z,5
2023-04-24T06:00:21.724Z,5
2023-04-24T06:02:50.484Z,5
2023-04-24T06:04:04.455Z,5
2023-04-24T06:05:18.295Z,5
2023-04-24T06:07:46.678Z,5
2023-04-24T06:09:00.675Z,5
2023-04-24T06:10:14.793Z,5
2023-04-24T06:12:43.061Z,5
2023-04-24T06:13:57.202Z,5
2023-04-24T06:15:11.323Z,5
2023-04-24T06:16:25.540Z,6
2023-04-24T06:18:53.739Z,5
2023-04-24T06:20:07.902Z,5
2023-04-24T06:21:22.003Z,5
2023-04-24T06:23:50.233Z,5
2023-04-24T06:25:04.470Z,5
2023-04-24T06:26:18.636Z,5
2023-04-24T06:28:46.907Z,6
2023-04-24T06:30:00.900Z,5
2023-04-24T06:31:15.194Z,6
2023-04-24T06:33:43.338Z,6
2023-04-24T06:34:59.514Z,5
2023-04-24T06:36:11.630Z,5
2023-04-24T06:38:39.862Z,5
2023-04-24T06:39:54.038Z,6
2023-04-24T06:41:08.148Z,6
2023-04-24T06:42:22.264Z,6
2023-04-24T06:44:50.507Z,10
2023-04-24T06:46:04.827Z,6
2023-04-24T06:47:18.805Z,6
2023-04-24T06:49:55.274Z,6
2023-04-24T06:51:09.541Z,7
2023-04-24T06:52:23.624Z,6
2023-04-24T06:54:51.775Z,7
2023-04-24T06:56:06.038Z,7
2023-04-24T06:57:20.056Z,7
2023-04-24T06:59:48.335Z,7
2023-04-24T07:01:02.528Z,7
2023-04-24T07:02:16.736Z,7
2023-04-24T07:04:44.946Z,7
2023-04-24T07:05:59.047Z,7
2023-04-24T07:07:13.166Z,8
2023-04-24T07:09:41.527Z,8
2023-04-24T07:10:55.516Z,9
2023-04-24T07:12:09.721Z,9
2023-04-24T07:13:23.849Z,9
2023-04-24T07:15:52.163Z,8
2023-04-24T07:17:06.275Z,8
2023-04-24T07:18:20.282Z,8
2023-04-24T07:20:48.597Z,8
2023-04-24T07:22:02.725Z,8
2023-04-24T07:23:17.005Z,8
2023-04-24T07:25:45.108Z,8
2023-04-24T07:26:59.252Z,7
2023-04-24T07:28:13.603Z,7
2023-04-24T07:30:41.649Z,7
2023-04-24T07:31:55.880Z,6
2023-04-24T07:33:09.934Z,6
2023-04-24T07:34:24.024Z,6
2023-04-24T07:36:52.303Z,5
2023-04-24T07:38:06.500Z,5
2023-04-24T07:39:20.551Z,5
2023-04-24T07:41:48.950Z,5
2023-04-24T07:43:02.971Z,5
2023-04-24T07:44:17.175Z,6
2023-04-24T07:46:45.523Z,5
2023-04-24T07:47:59.665Z,5
2023-04-24T07:49:14.894Z,5
2023-04-24T07:51:41.923Z,5
2023-04-24T07:52:56.021Z,5
2023-04-24T07:54:10.174Z,5
2023-04-24T07:55:27.227Z,5
2023-04-24T07:57:52.550Z,5
2023-04-24T07:59:06.703Z,6
2023-04-24T08:00:20.821Z,5
2023-04-24T08:02:49.338Z,6
2023-04-24T08:04:03.562Z,5
2023-04-24T08:05:17.509Z,5
2023-04-24T08:07:45.728Z,4
2023-04-24T08:08:59.756Z,5
2023-04-24T08:10:13.978Z,5
2023-04-24T08:12:42.173Z,4
2023-04-24T08:13:56.343Z,4
2023-04-24T08:15:10.415Z,4
2023-04-24T08:16:24.685Z,4
2023-04-24T08:18:52.844Z,4
2023-04-24T08:20:07.042Z,2
2023-04-24T08:21:21.089Z,3
2023-04-24T08:23:49.395Z,3
2023-04-24T08:25:03.485Z,3
2023-04-24T08:26:17.689Z,2
2023-04-24T08:28:45.947Z,3
2023-04-24T08:30:00.126Z,3
2023-04-24T08:31:14.188Z,3
2023-04-24T08:33:42.424Z,3
2023-04-24T08:34:56.564Z,3
2023-04-24T08:36:10.671Z,3
2023-04-24T08:37:24.840Z,2
2023-04-24T08:39:53.108Z,2
2023-04-24T08:41:07.253Z,2
2023-04-24T08:42:21.330Z,3
2023-04-24T08:44:49.634Z,3
2023-04-24T08:46:06.589Z,3
2023-04-24T08:47:17.895Z,3
2023-04-24T08:49:46.163Z,3
2023-04-24T08:51:00.340Z,3
2023-04-24T08:52:14.477Z,3
2023-04-24T08:54:42.688Z,4
2023-04-24T08:55:56.806Z,4
2023-04-24T08:57:10.932Z,4
2023-04-24T08:58:25.162Z,4
2023-04-24T09:00:53.455Z,4
2023-04-24T09:02:07.590Z,4
2023-04-24T09:03:21.767Z,3
2023-04-24T09:05:50.017Z,3
2023-04-24T09:07:04.041Z,3
2023-04-24T09:08:18.174Z,2
2023-04-24T09:10:47.626Z,2
2023-04-24T09:12:00.521Z,3
2023-04-24T09:13:14.717Z,3
2023-04-24T09:15:42.951Z,3
2023-04-24T09:16:57.094Z,3
2023-04-24T09:18:11.186Z,3
2023-04-24T09:20:39.578Z,3
2023-04-24T09:21:53.686Z,3
2023-04-24T09:23:07.741Z,3
2023-04-24T09:24:21.876Z,3
2023-04-24T09:26:50.170Z,3
2023-04-24T09:28:04.365Z,4
2023-04-24T09:29:18.405Z,3
2023-04-24T09:31:46.921Z,4
2023-04-24T09:33:00.819Z,4
2023-04-24T09:34:15.051Z,4
2023-04-24T09:36:43.229Z,4
2023-04-24T09:37:57.333Z,5
2023-04-24T09:39:11.465Z,5
2023-04-24T09:41:39.796Z,6
2023-04-24T09:42:53.921Z,5
2023-04-24T09:44:08.063Z,5
2023-04-24T09:45:22.140Z,6
2023-04-24T09:47:50.427Z,6
2023-04-24T09:49:04.555Z,6
2023-04-24T09:50:18.884Z,7
2023-04-24T09:51:33.003Z,7
2023-04-24T09:52:47.039Z,7
2023-04-24T09:54:01.041Z,7
2023-04-24T09:55:15.310Z,7
2023-04-24T09:57:43.574Z,8
2023-04-24T09:58:57.600Z,7
2023-04-24T10:00:11.825Z,7
2023-04-24T10:02:40.151Z,7
2023-04-24T10:03:54.159Z,7
2023-04-24T10:05:08.317Z,8
2023-04-24T10:06:22.403Z,8
2023-04-24T10:08:50.650Z,8
2023-04-24T10:10:04.823Z,9
2023-04-24T10:11:18.967Z,9
2023-04-24T10:13:47.272Z,9
2023-04-24T10:15:01.326Z,10
2023-04-24T10:16:15.493Z,9
2023-04-24T10:18:43.745Z,9
2023-04-24T10:19:57.881Z,11
2023-04-24T10:21:12.020Z,10
2023-04-24T10:23:40.291Z,10
2023-04-24T10:24:54.510Z,10
2023-04-24T10:26:08.548Z,10
2023-04-24T10:27:22.707Z,10
2023-04-24T10:29:50.920Z,10
2023-04-24T10:31:05.148Z,9
2023-04-24T10:32:19.247Z,10
2023-04-24T10:34:47.490Z,9
2023-04-24T10:36:01.591Z,9
2023-04-24T10:37:15.790Z,8
2023-04-24T10:39:44.066Z,8
2023-04-24T10:40:58.137Z,9
2023-04-24T10:42:12.264Z,9
2023-04-24T10:44:40.502Z,8
2023-04-24T10:45:54.760Z,8
2023-04-24T10:47:08.948Z,8
2023-04-24T10:48:23.108Z,8
2023-04-24T10:50:51.206Z,9
2023-04-24T10:52:05.452Z,9
2023-04-24T10:53:19.592Z,8
2023-04-24T10:55:47.749Z,8
2023-04-24T10:57:01.883Z,8
2023-04-24T10:58:16.042Z,8
2023-04-24T11:00:44.348Z,7
2023-04-24T11:01:58.457Z,7
2023-04-24T11:03:12.634Z,7
2023-04-24T11:05:40.787Z,7
2023-04-24T11:06:54.932Z,7
2023-04-24T11:08:09.119Z,7
2023-04-24T11:09:23.287Z,7
2023-04-24T11:11:51.449Z,8
2023-04-24T11:13:05.591Z,8
2023-04-24T11:14:19.824Z,8
2023-04-24T11:16:48.197Z,8
2023-04-24T11:18:02.181Z,8
2023-04-24T11:19:16.286Z,8
2023-04-24T11:21:44.546Z,8
2023-04-24T11:22:58.680Z,8
2023-04-24T11:24:12.816Z,8
2023-04-24T11:26:41.062Z,8
2023-04-24T11:27:55.241Z,7
2023-04-24T11:29:09.372Z,8
2023-04-24T11:30:23.494Z,8
2023-04-24T11:32:51.817Z,8
2023-04-24T11:34:05.915Z,8
2023-04-24T11:35:20.078Z,7
2023-04-24T11:38:08.124Z,9
2023-04-24T11:39:02.392Z,9
2023-04-24T11:40:16.524Z,9
2023-04-24T11:42:44.790Z,9
2023-04-24T11:43:59.028Z,9
2023-04-24T11:45:13.173Z,8
2023-04-24T11:47:41.327Z,11
2023-04-24T11:48:55.467Z,11
2023-04-24T11:50:09.640Z,11
2023-04-24T11:51:23.750Z,11
2023-04-24T11:54:01.550Z,12
2023-04-24T11:55:06.165Z,12
2023-04-24T11:56:20.280Z,14
2023-04-24T11:58:48.594Z,13
2023-04-24T12:00:02.971Z,14
2023-04-24T12:01:16.855Z,13
2023-04-24T12:03:45.455Z,14
2023-04-24T12:04:59.466Z,13
2023-04-24T12:06:13.471Z,13
2023-04-24T12:08:41.559Z,14
2023-04-24T12:09:55.714Z,13
2023-04-24T12:11:09.984Z,13
2023-04-24T12:12:23.985Z,13
2023-04-24T12:14:52.299Z,13
2023-04-24T12:16:06.461Z,12
2023-04-24T12:17:20.500Z,12
2023-04-24T12:19:48.852Z,12
2023-04-24T12:21:02.949Z,12
2023-04-24T12:22:17.052Z,11
2023-04-24T12:24:45.337Z,10
2023-04-24T12:25:59.529Z,11
2023-04-24T12:27:13.610Z,10
2023-04-24T12:29:41.875Z,9
2023-04-24T12:30:56.004Z,10
2023-04-24T12:32:10.187Z,10
2023-04-24T12:33:24.262Z,9
2023-04-24T12:35:52.551Z,9
2023-04-24T12:37:06.670Z,9
2023-04-24T12:38:20.766Z,9
2023-04-24T12:40:49.082Z,9
2023-04-24T12:42:03.185Z,8
2023-04-24T12:43:17.399Z,10
2023-04-24T12:45:45.631Z,9
2023-04-24T12:46:59.816Z,9
2023-04-24T12:48:13.901Z,9
2023-04-24T12:50:43.617Z,9
2023-04-24T12:51:56.247Z,9
2023-04-24T12:53:10.352Z,9
2023-04-24T12:54:24.620Z,9
2023-04-24T12:56:52.885Z,8
2023-04-24T12:58:07.001Z,9
2023-04-24T12:59:21.029Z,9
2023-04-24T13:01:49.442Z,9
2023-04-24T13:03:04.019Z,9
2023-04-24T13:04:17.881Z,9
2023-04-24T13:06:45.864Z,9
2023-04-24T13:07:59.999Z,9
2023-04-24T13:09:14.120Z,8
2023-04-24T13:11:42.374Z,7
2023-04-24T13:12:56.506Z,9
2023-04-24T13:14:10.620Z,9
2023-04-24T13:15:24.778Z,9
2023-04-24T13:17:53.198Z,9
2023-04-24T13:19:07.210Z,8
2023-04-24T13:20:21.300Z,8
2023-04-24T13:22:49.667Z,8
2023-04-24T13:24:03.728Z,9
2023-04-24T13:25:18.144Z,10
2023-04-24T13:27:46.228Z,10
2023-04-24T13:29:00.335Z,9
2023-04-24T13:30:14.384Z,9
2023-04-24T13:32:42.661Z,10
2023-04-24T13:33:56.808Z,9
2023-04-24T13:35:10.909Z,10
2023-04-24T13:36:25.099Z,9
2023-04-24T13:38:53.343Z,10
2023-04-24T13:40:07.446Z,11
2023-04-24T13:41:21.567Z,10
2023-04-24T13:43:49.829Z,9
2023-04-24T13:45:13.864Z,9
2023-04-24T13:46:18.353Z,10
2023-04-24T13:48:46.442Z,9
2023-04-24T13:50:00.504Z,8
2023-04-24T13:51:14.630Z,8
2023-04-24T13:53:43.171Z,9
2023-04-24T13:54:57.023Z,9
2023-04-24T13:56:11.143Z,7
2023-04-24T13:58:39.442Z,7
2023-04-24T13:59:53.557Z,8
2023-04-24T14:01:07.769Z,8
2023-04-24T14:02:22.005Z,8
2023-04-24T14:04:50.503Z,8
2023-04-24T14:06:04.252Z,8
2023-04-24T14:07:18.427Z,8
2023-04-24T14:09:46.702Z,8
2023-04-24T14:11:01.659Z,8
2023-04-24T14:12:14.968Z,8
2023-04-24T14:14:43.262Z,8
2023-04-24T14:15:57.373Z,7
2023-04-24T14:17:11.387Z,7
2023-04-24T14:19:39.717Z,8
2023-04-24T14:20:53.953Z,7
2023-04-24T14:22:07.958Z,8
2023-04-24T14:23:22.079Z,8
2023-04-24T14:25:50.355Z,8
2023-04-24T14:27:04.509Z,8
2023-04-24T14:28:18.646Z,7
2023-04-24T14:29:35.287Z,7
2023-04-24T14:30:46.974Z,7
2023-04-24T14:32:01.105Z,8
2023-04-24T14:33:15.231Z,7
2023-04-24T14:35:43.531Z,7
2023-04-24T14:36:57.588Z,7
2023-04-24T14:38:11.687Z,7
2023-04-24T14:41:54.108Z,6
2023-04-24T14:43:08.283Z,6
2023-04-24T14:44:22.339Z,6
2023-04-24T14:46:50.675Z,6
2023-04-24T14:48:04.809Z,6
2023-04-24T14:49:18.918Z,6
2023-04-24T14:51:47.186Z,6
2023-04-24T14:53:01.270Z,6
2023-04-24T14:54:15.455Z,6
2023-04-24T14:56:43.753Z,6
2023-04-24T14:57:57.818Z,6
2023-04-24T14:59:12.060Z,7
2023-04-24T15:01:40.310Z,7
2023-04-24T15:02:54.481Z,7
2023-04-24T15:04:08.618Z,7
2023-04-24T15:05:23.006Z,7
2023-04-24T15:07:50.869Z,6
2023-04-24T15:09:05.018Z,7
2023-04-24T15:10:19.258Z,6
2023-04-24T15:12:47.531Z,6
2023-04-24T15:14:01.643Z,6
2023-04-24T15:15:15.828Z,6
2023-04-24T15:17:44.008Z,6
2023-04-24T15:18:58.126Z,6
2023-04-24T15:20:12.253Z,6
2023-04-24T15:22:40.483Z,5
2023-04-24T15:23:54.653Z,5
2023-04-24T15:25:08.792Z,5
2023-04-24T15:26:22.913Z,6
2023-04-24T15:28:51.140Z,6
2023-04-24T15:30:05.294Z,6
2023-04-24T15:31:19.460Z,5
2023-04-24T15:33:47.958Z,5
2023-04-24T15:35:08.461Z,5
2023-04-24T15:36:16.050Z,6
2023-04-24T15:38:44.317Z,5
2023-04-24T15:39:58.443Z,5
2023-04-24T15:41:12.906Z,5
2023-04-24T15:43:40.730Z,5
2023-04-24T15:44:54.897Z,5
2023-04-24T15:46:09.155Z,5
2023-04-24T15:47:23.209Z,5
2023-04-24T15:49:51.418Z,5
2023-04-24T15:51:05.609Z,4
2023-04-24T15:52:19.680Z,5
2023-04-24T15:54:47.966Z,5
2023-04-24T15:56:02.101Z,5
2023-04-24T15:57:16.289Z,5
2023-04-24T15:59:44.557Z,4
2023-04-24T16:00:58.666Z,5
2023-04-24T16:02:12.805Z,5
2023-04-24T16:04:41.178Z,5
2023-04-24T16:05:55.264Z,5
2023-04-24T16:07:09.387Z,5
2023-04-24T16:08:23.411Z,5
2023-04-24T16:10:51.663Z,5
2023-04-24T16:12:05.807Z,5
2023-04-24T16:13:19.966Z,5
2023-04-24T16:15:48.324Z,4
2023-04-24T16:17:02.508Z,5
2023-04-24T16:18:16.548Z,5
2023-04-24T16:20:44.876Z,5
2023-04-24T16:21:58.876Z,5
2023-04-24T16:23:13.014Z,5
2023-04-24T16:25:41.269Z,5
2023-04-24T16:26:55.505Z,5
2023-04-24T16:28:09.634Z,5
2023-04-24T16:29:23.784Z,5
2023-04-24T16:31:52.115Z,5
2023-04-24T16:33:06.248Z,6
2023-04-24T16:34:20.199Z,5
2023-04-24T16:36:48.491Z,5
2023-04-24T16:38:02.618Z,4
2023-04-24T16:39:16.771Z,5
2023-04-24T16:41:45.059Z,5
2023-04-24T16:42:59.202Z,5
2023-04-24T16:44:13.265Z,5
2023-04-24T16:46:41.593Z,5
2023-04-24T16:47:55.766Z,5
2023-04-24T16:49:09.864Z,4
2023-04-24T16:50:23.946Z,5
2023-04-24T16:52:52.204Z,5
2023-04-24T16:54:06.389Z,4
2023-04-24T16:55:20.489Z,5
2023-04-24T16:57:48.772Z,5
2023-04-24T16:59:02.938Z,4
2023-04-24T17:00:17.067Z,5
2023-04-24T17:02:45.505Z,5
2023-04-24T17:03:59.594Z,5
2023-04-24T17:05:13.622Z,4
2023-04-24T17:07:41.793Z,4
2023-04-24T17:08:55.961Z,5
2023-04-24T17:10:10.170Z,5
2023-04-24T17:11:24.319Z,5
2023-04-24T17:13:52.469Z,6
2023-04-24T17:15:06.656Z,6
2023-04-24T17:16:20.831Z,5
2023-04-24T17:18:49.186Z,5
2023-04-24T17:20:11.475Z,5
2023-04-24T17:21:17.296Z,5
2023-04-24T17:23:45.560Z,5
2023-04-24T17:24:59.655Z,5
2023-04-24T17:26:13.865Z,5
2023-04-24T17:28:42.048Z,5
2023-04-24T17:29:56.278Z,5
2023-04-24T17:31:10.300Z,5
2023-04-24T17:32:24.704Z,5
2023-04-24T17:34:52.857Z,5
2023-04-24T17:36:06.867Z,6
2023-04-24T17:37:20.958Z,5
2023-04-24T17:39:49.295Z,5
2023-04-24T17:41:03.490Z,4
2023-04-24T17:42:17.509Z,5
2023-04-24T17:44:45.817Z,5
2023-04-24T17:45:59.936Z,5
2023-04-24T17:47:14.094Z,5
2023-04-24T17:49:42.345Z,4
2023-04-24T17:50:56.508Z,5
2023-04-24T17:52:10.560Z,5
2023-04-24T17:53:24.796Z,5
2023-04-24T17:55:52.985Z,5
2023-04-24T17:57:07.113Z,4
2023-04-24T17:58:21.239Z,5
2023-04-24T18:00:49.596Z,5
2023-04-24T18:02:03.773Z,5
2023-04-24T18:03:18.041Z,4
2023-04-24T18:05:46.071Z,4
2023-04-24T18:07:00.177Z,4
2023-04-24T18:08:14.323Z,4
2023-04-24T18:10:44.772Z,5
2023-04-24T18:11:56.688Z,5
2023-04-24T18:13:10.814Z,5
2023-04-24T18:14:25.000Z,5
2023-04-24T18:16:53.277Z,4
2023-04-24T18:18:07.406Z,4
2023-04-24T18:19:21.477Z,5
2023-04-24T18:21:49.763Z,4
2023-04-24T18:23:03.981Z,4
2023-04-24T18:24:18.132Z,4
2023-04-24T18:26:46.380Z,4
2023-04-24T18:28:00.431Z,5
2023-04-24T18:29:14.680Z,4
2023-04-24T18:31:42.904Z,4
2023-04-24T18:32:57.056Z,4
2023-04-24T18:34:11.126Z,4
2023-04-24T18:36:39.393Z,4
2023-04-24T18:37:53.533Z,4
2023-04-24T18:39:07.724Z,4
2023-04-24T18:40:21.783Z,5
2023-04-24T18:42:50.076Z,4
2023-04-24T18:44:04.207Z,4
2023-04-24T18:45:18.349Z,4
2023-04-24T18:47:46.659Z,4
2023-04-24T18:49:00.701Z,4
2023-04-24T18:50:14.881Z,4
2023-04-24T18:52:43.101Z,4
2023-04-24T18:53:57.256Z,4
2023-04-24T18:55:11.353Z,4
2023-04-24T18:57:39.729Z,3
2023-04-24T18:58:53.870Z,4
2023-04-24T19:00:07.895Z,3
2023-04-24T19:01:22.093Z,4
2023-04-24T19:03:50.433Z,3
2023-04-24T19:05:04.580Z,3
2023-04-24T19:06:18.580Z,3
2023-04-24T19:07:33.024Z,3
2023-04-24T19:08:47.209Z,4
2023-04-24T19:10:01.174Z,3
2023-04-24T19:11:15.135Z,3
2023-04-24T19:13:43.374Z,3
2023-04-24T19:14:57.780Z,3
2023-04-24T19:16:11.643Z,3
2023-04-24T19:18:39.975Z,3
2023-04-24T19:19:54.099Z,3
2023-04-24T19:21:08.267Z,3
2023-04-24T19:22:22.297Z,3
2023-04-24T19:24:50.582Z,3
2023-04-24T19:26:04.733Z,3
2023-04-24T19:27:18.914Z,2
2023-04-24T19:29:47.201Z,2
2023-04-24T19:31:01.210Z,3
2023-04-24T19:32:15.507Z,3
2023-04-24T19:34:43.668Z,3
2023-04-24T19:35:57.774Z,3
2023-04-24T19:37:11.904Z,3
2023-04-24T19:38:26.064Z,3
2023-04-24T19:39:40.186Z,3
2023-04-24T19:40:54.344Z,3
2023-04-24T19:42:08.451Z,3
2023-04-24T19:43:22.671Z,3
2023-04-24T19:45:50.940Z,2
2023-04-24T19:47:04.995Z,3
2023-04-24T19:48:19.275Z,2
2023-04-24T19:50:47.486Z,3
2023-04-24T19:52:01.514Z,3
2023-04-24T19:53:15.713Z,3
2023-04-24T19:55:44.003Z,3
2023-04-24T19:56:58.155Z,3
2023-04-24T19:58:12.185Z,3
2023-04-24T20:00:40.439Z,3
2023-04-24T20:01:54.726Z,3
2023-04-24T20:03:15.816Z,3
2023-04-24T20:04:23.223Z,3
2023-04-24T20:06:51.168Z,4
2023-04-24T20:08:05.273Z,3
2023-04-24T20:09:19.420Z,4
2023-04-24T20:11:47.765Z,3
2023-04-24T20:13:01.765Z,4
2023-04-24T20:14:15.900Z,4
2023-04-24T20:16:44.267Z,4
2023-04-24T20:17:58.291Z,4
2023-04-24T20:19:12.778Z,4
2023-04-24T20:21:40.701Z,4
2023-04-24T20:22:54.953Z,4
2023-04-24T20:24:08.971Z,4
2023-04-24T20:25:23.113Z,5
2023-04-24T20:27:51.494Z,4
2023-04-24T20:29:05.505Z,3
2023-04-24T20:30:19.645Z,3
2023-04-24T20:32:48.176Z,3
2023-04-24T20:34:02.033Z,3
2023-04-24T20:35:16.187Z,3
2023-04-24T20:37:44.436Z,3
2023-04-24T20:38:58.573Z,3
2023-04-24T20:40:12.757Z,3
2023-04-24T20:42:40.968Z,4
2023-04-24T20:43:55.177Z,3
2023-04-24T20:45:09.253Z,3
2023-04-24T20:46:23.522Z,3
2023-04-24T20:48:51.823Z,3
2023-04-24T20:50:05.855Z,3
2023-04-24T20:51:19.928Z,3
2023-04-24T20:53:48.252Z,3
2023-04-24T20:55:02.352Z,4
2023-04-24T20:56:16.537Z,4
2023-04-24T20:58:44.808Z,3
2023-04-24T20:59:58.838Z,3
2023-04-24T21:01:13.126Z,3
2023-04-24T21:03:41.437Z,3
2023-04-24T21:04:55.438Z,3
2023-04-24T21:06:09.523Z,3
2023-04-24T21:07:23.654Z,3
2023-04-24T21:09:51.902Z,3
2023-04-24T21:11:06.093Z,3
2023-04-24T21:12:20.216Z,4
2023-04-24T21:14:50.530Z,4
2023-04-24T21:16:02.621Z,4
2023-04-24T21:17:16.794Z,4
2023-04-24T21:19:45.052Z,7
2023-04-24T21:20:59.126Z,4
2023-04-24T21:22:13.257Z,3
2023-04-24T21:24:41.532Z,12
2023-04-24T21:25:55.773Z,7
2023-04-24T21:27:10.055Z,4
2023-04-24T21:28:23.901Z,3
2023-04-24T21:30:52.167Z,3
2023-04-24T21:32:06.400Z,3
2023-04-24T21:33:20.411Z,3
2023-04-24T21:35:48.757Z,3
2023-04-24T21:37:02.895Z,3
2023-04-24T21:38:16.970Z,4
2023-04-24T21:40:45.251Z,4
2023-04-24T21:41:59.450Z,5
2023-04-24T21:43:13.505Z,8
2023-04-24T21:45:41.746Z,10
2023-04-24T21:46:55.989Z,10
2023-04-24T21:48:10.346Z,11
2023-04-24T21:49:24.175Z,10
2023-04-24T21:51:52.556Z,4
2023-04-24T21:53:06.678Z,4
2023-04-24T21:54:20.698Z,4
2023-04-24T21:56:48.993Z,4
2023-04-24T21:58:03.112Z,4
2023-04-24T21:59:17.287Z,5
2023-04-24T22:01:45.629Z,4
2023-04-24T22:02:59.797Z,4
2023-04-24T22:04:13.912Z,3
2023-04-24T22:06:42.036Z,4
2023-04-24T22:07:56.287Z,4
2023-04-24T22:09:10.288Z,3
2023-04-24T22:10:24.541Z,4
2023-04-24T22:12:52.701Z,4
2023-04-24T22:14:06.864Z,4
2023-04-24T22:15:20.937Z,4
2023-04-24T22:17:49.347Z,4
2023-04-24T22:19:03.481Z,5
2023-04-24T22:20:17.510Z,4
2023-04-24T22:22:45.788Z,4
2023-04-24T22:23:59.920Z,4
2023-04-24T22:25:14.055Z,5
2023-04-24T22:27:42.357Z,5
2023-04-24T22:28:56.470Z,4
2023-04-24T22:30:10.545Z,5
2023-04-24T22:31:24.828Z,4
2023-04-24T22:33:52.949Z,4
2023-04-24T22:35:07.174Z,5
2023-04-24T22:36:21.228Z,5
2023-04-24T22:38:49.587Z,5
2023-04-24T22:40:03.874Z,4
2023-04-24T22:41:17.902Z,5
2023-04-24T22:43:46.309Z,5
2023-04-24T22:45:00.205Z,5
2023-04-24T22:46:14.410Z,5
2023-04-24T22:48:42.605Z,5
2023-04-24T22:49:56.738Z,5
2023-04-24T22:51:10.811Z,5
2023-04-24T22:52:24.941Z,5
2023-04-24T22:54:53.280Z,5
2023-04-24T22:56:07.431Z,6
2023-04-24T22:57:21.469Z,6
2023-04-24T22:59:49.815Z,6
2023-04-24T23:01:04.076Z,5
2023-04-24T23:02:18.110Z,5
2023-04-24T23:04:46.395Z,6
2023-04-24T23:06:00.423Z,6
2023-04-24T23:07:14.663Z,6
2023-04-24T23:09:42.830Z,6
2023-04-24T23:10:57.088Z,6
2023-04-24T23:12:11.109Z,6
2023-04-24T23:14:39.368Z,6
2023-04-24T23:15:54.726Z,6
2023-04-24T23:17:07.639Z,6
2023-04-24T23:18:21.757Z,6
2023-04-24T23:20:50.095Z,5
2023-04-24T23:22:04.206Z,6
2023-04-24T23:23:18.286Z,6
2023-04-24T23:25:46.580Z,6
2023-04-24T23:27:00.670Z,6
2023-04-24T23:28:14.878Z,6
2023-04-24T23:30:43.148Z,6
2023-04-24T23:31:57.345Z,6
2023-04-24T23:33:11.382Z,6
2023-04-24T23:35:39.764Z,6
2023-04-24T23:36:53.874Z,6
2023-04-24T23:38:08.011Z,6
2023-04-24T23:39:22.036Z,6
2023-04-24T23:41:50.287Z,6
2023-04-24T23:43:08.170Z,6